Time;durP1;ratioP1;P1;durP2;ratioP2;P2;SDS_P1;SDS_P2;PMS_P1;PMS_P2;Temp;Humidity;BMP_temperature;BMP_pressure;BME280_temperature;BME280_humidity;BME280_pressure;Samples;Min_cycle;Max_cycle;Signal;HPM_P1;HPM_P2
2021/04/07 00:00:22;;;;;;;13.03;7.80;;;0.00;99.90;;;;;;4977515;28;20180;-83
2021/04/07 00:02:49;;;;;;;16.00;9.30;;;0.10;99.90;;;;;;4978678;28;20491;-85
2021/04/07 00:05:18;;;;;;;14.23;8.50;;;0.10;99.90;;;;;;4977722;28;20187;-84
2021/04/07 00:07:44;;;;;;;17.38;10.05;;;0.10;99.90;;;;;;4978450;28;20255;-85
2021/04/07 00:10:15;;;;;;;15.27;10.23;;;0.20;99.90;;;;;;4978126;28;20211;-83
2021/04/07 00:12:41;;;;;;;14.75;9.60;;;0.10;99.90;;;;;;4977184;28;20191;-84
2021/04/07 00:15:20;;;;;;;15.93;9.65;;;0.10;99.90;;;;;;4976284;28;20191;-84
2021/04/07 00:17:47;;;;;;;15.70;9.20;;;0.30;99.90;;;;;;4976992;28;20176;-84
2021/04/07 00:20:15;;;;;;;22.63;10.75;;;0.30;99.90;;;;;;4977196;28;20705;-82
2021/04/07 00:22:41;;;;;;;12.48;7.25;;;0.30;99.90;;;;;;4976852;28;20222;-83
2021/04/07 00:25:08;;;;;;;14.07;8.63;;;0.30;99.90;;;;;;4976692;28;20192;-85
2021/04/07 00:27:36;;;;;;;14.45;7.63;;;0.30;99.90;;;;;;4978019;28;20975;-83
2021/04/07 00:30:04;;;;;;;14.75;6.05;;;0.20;99.90;;;;;;4962177;28;20593;-84
2021/04/07 00:32:29;;;;;;;16.45;7.55;;;0.20;99.90;;;;;;4978698;28;20267;-85
2021/04/07 00:34:55;;;;;;;8.93;5.70;;;0.20;99.90;;;;;;4980156;28;20599;-84
2021/04/07 00:37:20;;;;;;;7.83;4.80;;;0.10;99.90;;;;;;4979222;28;20669;-83
2021/04/07 00:39:46;;;;;;;11.97;6.10;;;0.20;99.90;;;;;;4979548;28;20191;-83
2021/04/07 00:42:12;;;;;;;13.80;6.33;;;0.20;99.90;;;;;;4979098;28;20197;-83
2021/04/07 00:44:37;;;;;;;14.43;5.80;;;0.30;99.90;;;;;;4978629;28;20181;-83
2021/04/07 00:47:03;;;;;;;11.33;5.53;;;0.10;99.90;;;;;;4962843;28;20216;-84
2021/04/07 00:49:29;;;;;;;8.53;5.30;;;0.10;99.90;;;;;;5013827;28;20553;-84
2021/04/07 00:51:55;;;;;;;6.03;4.80;;;0.20;99.90;;;;;;4981894;28;20180;-84
2021/04/07 00:54:21;;;;;;;11.18;5.82;;;0.20;99.90;;;;;;4996413;28;20637;-84
2021/04/07 00:56:52;;;;;;;8.15;5.75;;;0.20;99.90;;;;;;4981790;28;20216;-84
2021/04/07 00:59:19;;;;;;;11.32;6.43;;;0.20;99.90;;;;;;4966318;28;20200;-84
2021/04/07 01:01:45;;;;;;;15.90;6.78;;;0.10;99.90;;;;;;4981710;28;20271;-84
2021/04/07 01:04:12;;;;;;;10.20;6.97;;;0.20;99.90;;;;;;4983006;28;20199;-85
2021/04/07 01:06:40;;;;;;;14.50;7.15;;;0.00;99.90;;;;;;4983688;28;20220;-84
2021/04/07 01:09:06;;;;;;;14.07;7.43;;;0.00;99.90;;;;;;4982108;28;20276;-85
2021/04/07 01:11:32;;;;;;;12.98;7.30;;;0.00;99.90;;;;;;4983646;28;20552;-84
2021/04/07 01:13:58;;;;;;;10.97;8.00;;;-0.10;99.90;;;;;;5013463;28;20192;-84
2021/04/07 01:16:24;;;;;;;14.20;7.13;;;-0.10;99.90;;;;;;4964625;28;20627;-83
2021/04/07 01:18:50;;;;;;;18.42;8.30;;;0.00;99.90;;;;;;4981271;28;20192;-82
2021/04/07 01:21:18;;;;;;;10.90;6.65;;;0.00;99.90;;;;;;4982367;28;20659;-86
2021/04/07 01:23:47;;;;;;;16.25;7.90;;;0.00;99.90;;;;;;4981632;28;20637;-84
2021/04/07 01:26:15;;;;;;;14.35;8.45;;;0.00;99.90;;;;;;4979536;28;20200;-83
2021/04/07 01:28:41;;;;;;;15.07;7.45;;;0.00;99.90;;;;;;5010605;28;20184;-85
2021/04/07 01:31:07;;;;;;;14.13;8.63;;;0.10;99.90;;;;;;4980570;28;20255;-83
2021/04/07 01:33:33;;;;;;;12.15;7.85;;;0.10;99.90;;;;;;4979180;28;20183;-83
2021/04/07 01:35:59;;;;;;;14.73;8.17;;;0.20;99.90;;;;;;4980509;28;20303;-83
2021/04/07 01:38:25;;;;;;;8.83;7.13;;;0.20;99.90;;;;;;4964929;28;20506;-84
2021/04/07 01:40:51;;;;;;;8.63;6.00;;;0.20;99.90;;;;;;4983883;28;20420;-83
2021/04/07 01:43:19;;;;;;;9.95;5.60;;;0.10;99.90;;;;;;4983486;28;20210;-84
2021/04/07 01:45:46;;;;;;;11.52;6.07;;;0.20;99.90;;;;;;5015313;28;20204;-83
2021/04/07 01:48:13;;;;;;;12.27;7.68;;;0.20;99.90;;;;;;4983872;28;20185;-84
2021/04/07 01:50:49;;;;;;;15.85;7.25;;;0.30;99.90;;;;;;4983964;28;20230;-84
2021/04/07 01:53:19;;;;;;;15.68;8.07;;;0.30;99.90;;;;;;4983608;28;20183;-84
2021/04/07 01:55:44;;;;;;;9.65;6.50;;;0.30;99.90;;;;;;4983092;28;20204;-83
2021/04/07 01:58:11;;;;;;;14.80;7.40;;;0.30;99.90;;;;;;4983420;28;20183;-84
2021/04/07 02:00:37;;;;;;;12.63;7.53;;;0.30;99.90;;;;;;4981235;28;20184;-84
2021/04/07 02:03:04;;;;;;;12.07;6.70;;;0.40;99.90;;;;;;4981931;28;20183;-85
2021/04/07 02:05:30;;;;;;;13.63;7.90;;;0.40;99.90;;;;;;4981710;28;20886;-84
2021/04/07 02:07:58;;;;;;;11.65;7.20;;;0.40;99.90;;;;;;4981340;28;20545;-83
2021/04/07 02:10:24;;;;;;;14.95;7.50;;;0.40;99.90;;;;;;4982305;28;20195;-83
2021/04/07 02:12:57;;;;;;;11.00;5.47;;;0.40;99.90;;;;;;4979202;28;20181;-84
2021/04/07 02:15:24;;;;;;;17.85;6.50;;;0.40;99.90;;;;;;4978382;28;20554;-85
2021/04/07 02:17:51;;;;;;;10.35;6.70;;;0.40;99.90;;;;;;4979149;28;20554;-85
2021/04/07 02:20:17;;;;;;;10.07;6.07;;;0.40;99.90;;;;;;4977442;28;20182;-85
2021/04/07 02:22:44;;;;;;;12.55;6.53;;;0.40;99.90;;;;;;4960799;28;20184;-84
2021/04/07 02:25:11;;;;;;;13.13;6.75;;;0.40;99.90;;;;;;4976803;28;20330;-85
2021/04/07 02:27:38;;;;;;;8.93;5.68;;;0.30;99.90;;;;;;4977219;28;20172;-84
2021/04/07 02:30:09;;;;;;;13.73;5.57;;;0.30;99.90;;;;;;4976111;28;20188;-84
2021/04/07 02:32:35;;;;;;;12.18;6.80;;;0.30;99.90;;;;;;4977825;28;20184;-84
2021/04/07 02:35:01;;;;;;;10.97;7.03;;;0.40;99.90;;;;;;4959931;28;20184;-84
2021/04/07 02:37:27;;;;;;;11.02;5.90;;;0.40;99.90;;;;;;4975381;28;20164;-85
2021/04/07 02:39:53;;;;;;;7.37;5.70;;;0.40;99.90;;;;;;4976622;28;20532;-84
2021/04/07 02:42:21;;;;;;;11.27;7.60;;;0.30;99.90;;;;;;4978273;28;20448;-84
2021/04/07 02:48:19;;;;;;;11.68;6.60;;;0.40;99.90;;;;;;4974395;28;20187;-84
2021/04/07 02:50:45;;;;;;;11.40;7.13;;;0.40;99.90;;;;;;4974503;28;20191;-86
2021/04/07 02:53:11;;;;;;;12.53;8.00;;;0.30;99.90;;;;;;5007874;28;20231;-84
2021/04/07 02:55:36;;;;;;;10.53;8.13;;;0.40;99.90;;;;;;4975972;28;20291;-84
2021/04/07 02:58:02;;;;;;;13.10;6.97;;;0.40;99.90;;;;;;5009079;28;20263;-85
2021/04/07 03:00:27;;;;;;;12.03;8.43;;;0.40;99.90;;;;;;5008838;28;20297;-84
2021/04/07 03:02:53;;;;;;;9.90;7.90;;;0.40;99.90;;;;;;5007355;28;20195;-86
2021/04/07 03:05:19;;;;;;;18.87;9.00;;;0.30;99.90;;;;;;4976412;28;20208;-84
2021/04/07 03:07:44;;;;;;;12.53;8.03;;;0.30;99.90;;;;;;4959848;28;20188;-85
2021/04/07 03:10:12;;;;;;;10.50;8.63;;;0.30;99.90;;;;;;4960027;28;20207;-84
2021/04/07 03:12:39;;;;;;;10.07;7.57;;;0.20;99.90;;;;;;4976333;28;20180;-83
2021/04/07 03:15:06;;;;;;;21.92;9.60;;;0.10;99.90;;;;;;4977665;28;20274;-84
2021/04/07 03:17:32;;;;;;;12.55;8.00;;;0.20;99.90;;;;;;4978859;28;20762;-84
2021/04/07 03:19:58;;;;;;;15.70;10.50;;;0.20;99.90;;;;;;4977059;28;20180;-84
2021/04/07 03:22:24;;;;;;;18.70;12.70;;;0.20;99.90;;;;;;4976030;28;20608;-84
2021/04/07 03:24:49;;;;;;;23.33;11.10;;;0.10;99.90;;;;;;4958605;28;20191;-84
2021/04/07 03:27:15;;;;;;;14.30;7.83;;;0.20;99.90;;;;;;4976597;28;20327;-85
2021/04/07 03:29:41;;;;;;;13.30;9.37;;;0.20;99.90;;;;;;4979428;28;20180;-83
2021/04/07 03:32:06;;;;;;;15.30;11.57;;;0.20;99.90;;;;;;5008998;28;20649;-85
2021/04/07 03:34:32;;;;;;;16.57;11.93;;;0.30;99.90;;;;;;4978073;28;20212;-84
2021/04/07 03:36:58;;;;;;;20.27;12.20;;;0.20;99.90;;;;;;4979689;28;20224;-83
2021/04/07 03:39:23;;;;;;;19.10;12.30;;;0.20;99.90;;;;;;4980167;28;20428;-84
2021/04/07 03:41:49;;;;;;;14.33;11.93;;;0.30;99.90;;;;;;4978031;28;20562;-85
2021/04/07 03:44:15;;;;;;;14.93;11.40;;;0.30;99.90;;;;;;4975750;28;20177;-86
2021/04/07 03:46:40;;;;;;;15.67;12.77;;;0.30;99.90;;;;;;4976919;28;20553;-86
2021/04/07 03:49:06;;;;;;;15.57;11.30;;;0.30;99.90;;;;;;4976172;28;20208;-85
2021/04/07 03:51:32;;;;;;;21.67;12.07;;;0.30;99.90;;;;;;4975990;28;20189;-84
2021/04/07 03:53:57;;;;;;;22.73;12.40;;;0.40;99.90;;;;;;4959032;28;20180;-85
2021/04/07 03:56:23;;;;;;;15.73;11.60;;;0.40;99.90;;;;;;4958295;28;20214;-84
2021/04/07 03:58:49;;;;;;;15.17;10.13;;;0.50;99.90;;;;;;4974650;28;20247;-84
2021/04/07 04:01:14;;;;;;;16.57;10.83;;;0.40;99.90;;;;;;4977526;28;20438;-84
2021/04/07 04:03:40;;;;;;;14.27;7.47;;;0.60;99.90;;;;;;4961215;28;20593;-84
2021/04/07 04:06:06;;;;;;;13.00;7.77;;;0.40;99.90;;;;;;4963920;28;20308;-85
2021/04/07 04:08:31;;;;;;;10.00;8.67;;;0.50;99.90;;;;;;4978996;28;20238;-85
2021/04/07 04:10:57;;;;;;;15.40;7.93;;;0.50;99.90;;;;;;4976535;28;20595;-84
2021/04/07 04:13:23;;;;;;;12.10;9.10;;;0.50;99.90;;;;;;4976073;28;20188;-84
2021/04/07 04:15:50;;;;;;;18.70;9.03;;;0.60;99.90;;;;;;4977952;28;20640;-84
2021/04/07 04:18:16;;;;;;;14.63;8.50;;;0.50;99.90;;;;;;4978626;28;20945;-84
2021/04/07 04:20:42;;;;;;;11.87;7.13;;;0.60;99.90;;;;;;5006166;28;20188;-85
2021/04/07 04:23:07;;;;;;;17.60;9.57;;;0.50;99.90;;;;;;4977488;28;20543;-84
2021/04/07 04:25:33;;;;;;;13.70;10.20;;;0.40;99.90;;;;;;4960189;28;20347;-85
2021/04/07 04:27:59;;;;;;;19.83;9.93;;;0.40;99.90;;;;;;4960593;28;20330;-84
2021/04/07 04:30:26;;;;;;;18.47;10.60;;;0.40;99.90;;;;;;4960782;28;20188;-85
2021/04/07 04:32:52;;;;;;;14.10;11.02;;;0.40;99.90;;;;;;4976386;28;20196;-84
2021/04/07 04:35:18;;;;;;;16.47;9.77;;;0.40;99.90;;;;;;4976100;28;20310;-85
2021/04/07 04:37:46;;;;;;;14.57;11.40;;;0.40;99.90;;;;;;5009005;28;20176;-85
2021/04/07 04:40:13;;;;;;;16.17;11.60;;;0.40;99.90;;;;;;4981224;28;20254;-84
2021/04/07 04:42:39;;;;;;;14.20;8.48;;;0.50;99.90;;;;;;4978293;28;20180;-85
2021/04/07 04:45:06;;;;;;;16.43;10.77;;;0.40;99.90;;;;;;4995884;28;20187;-84
2021/04/07 04:47:32;;;;;;;16.77;11.02;;;0.50;99.90;;;;;;4963950;28;20193;-86
2021/04/07 04:49:58;;;;;;;15.43;9.67;;;0.50;99.90;;;;;;4979995;28;20177;-84
2021/04/07 04:52:23;;;;;;;17.87;13.10;;;0.50;99.90;;;;;;4961482;28;20466;-84
2021/04/07 04:54:49;;;;;;;8.97;7.33;;;0.50;99.90;;;;;;4978969;28;20207;-84
2021/04/07 04:57:15;;;;;;;15.43;9.57;;;0.50;99.90;;;;;;4978765;28;20256;-84
2021/04/07 04:59:41;;;;;;;20.38;11.70;;;0.60;99.90;;;;;;4977816;28;20267;-82
2021/04/07 05:02:10;;;;;;;11.73;8.87;;;0.60;99.90;;;;;;4979462;28;20204;-85
2021/04/07 05:04:36;;;;;;;10.52;9.15;;;0.60;99.90;;;;;;4978592;28;20893;-84
2021/04/07 05:07:02;;;;;;;10.30;7.07;;;0.60;99.90;;;;;;4962900;28;20235;-85
2021/04/07 05:09:28;;;;;;;8.35;6.75;;;0.60;99.90;;;;;;4980899;28;20782;-84
2021/04/07 05:11:55;;;;;;;13.30;8.43;;;0.70;99.90;;;;;;4982481;28;20184;-82
2021/04/07 05:14:21;;;;;;;7.93;6.05;;;0.70;99.90;;;;;;4981460;28;20188;-82
2021/04/07 05:16:47;;;;;;;11.07;7.37;;;0.70;99.90;;;;;;4965024;28;20216;-83
2021/04/07 05:19:13;;;;;;;10.23;6.93;;;0.60;99.90;;;;;;4994500;28;20504;-83
2021/04/07 05:21:39;;;;;;;9.32;5.90;;;0.60;99.90;;;;;;4981396;28;20195;-83
2021/04/07 05:24:06;;;;;;;8.20;6.63;;;0.60;99.90;;;;;;4981908;28;20205;-83
2021/04/07 05:26:34;;;;;;;8.20;5.28;;;0.60;99.90;;;;;;4980568;28;20212;-85
2021/04/07 05:28:59;;;;;;;11.27;6.78;;;0.70;99.90;;;;;;5010963;28;20193;-82
2021/04/07 05:31:25;;;;;;;8.60;6.70;;;0.60;99.90;;;;;;4964586;28;20189;-81
2021/04/07 05:33:51;;;;;;;8.38;6.07;;;0.70;99.90;;;;;;4978005;28;20267;-83
2021/04/07 05:36:17;;;;;;;10.00;5.57;;;0.70;99.90;;;;;;4977614;28;20279;-85
2021/04/07 05:38:43;;;;;;;12.13;6.23;;;0.70;99.90;;;;;;4977647;28;20184;-81
2021/04/07 05:41:09;;;;;;;7.65;6.45;;;0.80;99.90;;;;;;4977197;28;20645;-83
2021/04/07 05:43:37;;;;;;;7.30;5.78;;;0.70;99.90;;;;;;4979158;28;20187;-83
2021/04/07 05:46:04;;;;;;;10.15;7.22;;;0.70;99.90;;;;;;5008721;28;20267;-84
2021/04/07 05:48:30;;;;;;;8.30;6.63;;;0.70;99.90;;;;;;4976555;28;20180;-83
2021/04/07 05:50:56;;;;;;;10.65;8.07;;;0.60;99.90;;;;;;4977164;28;20710;-83
2021/04/07 05:53:23;;;;;;;11.52;7.88;;;0.70;99.90;;;;;;4960475;28;20201;-85
2021/04/07 05:55:54;;;;;;;8.30;6.57;;;0.70;99.90;;;;;;4977576;28;20299;-80
2021/04/07 05:58:21;;;;;;;12.23;8.60;;;0.60;99.90;;;;;;4975690;28;20176;-86
2021/04/07 06:00:47;;;;;;;16.48;7.55;;;0.70;99.90;;;;;;4975626;28;20176;-84
2021/04/07 06:03:14;;;;;;;11.43;8.10;;;0.70;99.90;;;;;;4975386;28;20172;-85
2021/04/07 06:05:42;;;;;;;11.57;6.82;;;0.70;99.90;;;;;;4974038;28;20200;-85
2021/04/07 06:08:09;;;;;;;19.42;8.52;;;0.70;99.90;;;;;;4974353;28;20213;-84
2021/04/07 06:10:40;;;;;;;9.80;6.50;;;0.70;99.90;;;;;;4958140;28;20236;-84
2021/04/07 06:13:06;;;;;;;11.73;8.10;;;0.70;99.90;;;;;;4974178;28;20207;-85
2021/04/07 06:15:33;;;;;;;16.17;9.10;;;0.70;99.90;;;;;;4974978;28;20676;-84
2021/04/07 06:18:01;;;;;;;17.38;8.43;;;0.60;99.90;;;;;;4975485;28;20259;-84
2021/04/07 06:20:33;;;;;;;17.80;9.18;;;0.60;99.90;;;;;;4975309;28;20168;-77
2021/04/07 06:22:59;;;;;;;11.13;7.47;;;0.60;99.90;;;;;;4975243;28;20176;-77
2021/04/07 06:25:26;;;;;;;12.05;7.68;;;0.70;99.90;;;;;;4973430;28;20285;-78
2021/04/07 06:27:56;;;;;;;11.40;8.20;;;0.70;99.90;;;;;;4975223;28;20170;-82
2021/04/07 06:30:24;;;;;;;12.43;7.78;;;0.70;99.90;;;;;;4974164;28;20197;-84
2021/04/07 06:32:50;;;;;;;8.98;6.85;;;0.70;99.90;;;;;;4974081;28;20188;-82
2021/04/07 06:35:16;;;;;;;13.52;6.45;;;0.60;99.90;;;;;;4974362;28;20539;-81
2021/04/07 06:37:42;;;;;;;27.83;8.47;;;0.60;99.90;;;;;;4973660;28;20191;-82
2021/04/07 06:40:08;;;;;;;12.80;6.27;;;0.50;99.90;;;;;;4974914;28;20486;-82
2021/04/07 06:42:34;;;;;;;16.25;8.65;;;0.50;99.90;;;;;;4974962;28;20176;-81
2021/04/07 06:45:00;;;;;;;14.00;7.17;;;0.50;99.90;;;;;;4974106;28;20633;-80
2021/04/07 06:47:27;;;;;;;16.50;7.70;;;0.50;99.90;;;;;;4973514;28;20191;-81
2021/04/07 06:49:53;;;;;;;16.95;7.60;;;0.50;99.90;;;;;;4974671;28;20190;-80
2021/04/07 06:52:21;;;;;;;10.45;7.22;;;0.50;99.90;;;;;;4973443;28;20239;-79
2021/04/07 06:54:49;;;;;;;12.05;7.15;;;0.50;99.90;;;;;;4973231;28;20182;-79
2021/04/07 06:57:16;;;;;;;14.13;7.40;;;0.50;99.90;;;;;;4973246;28;20688;-80
2021/04/07 06:59:43;;;;;;;14.60;8.40;;;0.50;99.90;;;;;;4974388;28;20181;-80
2021/04/07 07:02:10;;;;;;;12.07;6.45;;;0.50;99.90;;;;;;4973212;28;20188;-79
2021/04/07 07:04:36;;;;;;;19.70;6.80;;;0.50;99.90;;;;;;4974253;28;20532;-81
2021/04/07 07:07:02;;;;;;;9.73;5.37;;;0.50;99.90;;;;;;4974288;28;20200;-81
2021/04/07 07:09:28;;;;;;;13.38;6.28;;;0.50;99.90;;;;;;4974339;28;20445;-80
2021/04/07 07:11:54;;;;;;;10.80;6.33;;;0.60;99.90;;;;;;4974622;28;20211;-79
2021/04/07 07:14:20;;;;;;;12.20;6.15;;;0.60;99.90;;;;;;4973144;28;20188;-79
2021/04/07 07:16:47;;;;;;;9.65;7.00;;;0.60;99.90;;;;;;4973975;28;20636;-80
2021/04/07 07:19:23;;;;;;;28.33;6.03;;;0.50;99.90;;;;;;4974353;28;20243;-79
2021/04/07 07:21:50;;;;;;;16.65;5.68;;;0.50;99.90;;;;;;4973158;28;20546;-82
2021/04/07 07:24:35;;;;;;;6.53;5.57;;;0.50;99.90;;;;;;4974336;28;20536;-81
2021/04/07 07:27:03;;;;;;;12.15;6.70;;;0.50;99.90;;;;;;4974224;28;20196;-79
2021/04/07 07:29:31;;;;;;;5.85;4.57;;;0.50;99.90;;;;;;4974372;28;20172;-81
2021/04/07 07:32:07;;;;;;;11.25;5.32;;;0.60;99.90;;;;;;4974088;28;20633;-79
2021/04/07 07:34:34;;;;;;;6.45;4.65;;;0.50;99.90;;;;;;4973963;28;20545;-81
2021/04/07 07:37:01;;;;;;;10.82;3.70;;;0.50;99.90;;;;;;4974054;28;20209;-79
2021/04/07 07:39:37;;;;;;;7.22;4.70;;;0.50;99.90;;;;;;4974056;28;20239;-80
2021/04/07 07:42:09;;;;;;;9.00;5.03;;;0.50;99.90;;;;;;4972770;28;20175;-79
2021/04/07 07:44:39;;;;;;;11.13;4.88;;;0.60;99.90;;;;;;4973746;28;20251;-80
2021/04/07 07:47:31;;;;;;;8.52;5.18;;;0.50;99.90;;;;;;4973790;28;20205;-79
2021/04/07 07:50:02;;;;;;;6.47;4.35;;;0.50;99.90;;;;;;4973580;28;20280;-80
2021/04/07 07:52:38;;;;;;;12.55;5.15;;;0.50;99.90;;;;;;4972720;28;20639;-80
2021/04/07 07:55:19;;;;;;;15.40;5.38;;;0.60;99.90;;;;;;4973956;28;20577;-78
2021/04/07 07:57:55;;;;;;;7.85;4.20;;;0.60;99.90;;;;;;4995052;28;20525;-79
2021/04/07 08:00:23;;;;;;;4.90;3.17;;;0.50;99.90;;;;;;4976270;28;20184;-78
2021/04/07 08:02:48;;;;;;;10.10;5.40;;;0.50;99.90;;;;;;4977633;28;20172;-78
2021/04/07 08:05:18;;;;;;;7.83;4.10;;;0.50;99.90;;;;;;4976014;28;20192;-77
2021/04/07 08:07:44;;;;;;;13.77;4.57;;;0.50;99.90;;;;;;4977839;28;20517;-80
2021/04/07 08:10:11;;;;;;;7.40;4.30;;;0.50;99.90;;;;;;4977561;28;20251;-79
2021/04/07 08:12:39;;;;;;;8.68;4.47;;;0.50;99.90;;;;;;4976372;28;20728;-81
2021/04/07 08:15:09;;;;;;;5.57;4.50;;;0.50;99.90;;;;;;4977229;28;20182;-79
2021/04/07 08:17:36;;;;;;;6.03;4.32;;;0.50;99.90;;;;;;4977905;28;20592;-79
2021/04/07 08:20:04;;;;;;;5.32;3.55;;;0.40;99.90;;;;;;4977476;28;20184;-78
2021/04/07 08:22:32;;;;;;;7.68;5.10;;;0.40;99.90;;;;;;4977149;28;20205;-79
2021/04/07 08:24:58;;;;;;;5.35;3.22;;;0.40;99.90;;;;;;4977407;28;20180;-79
2021/04/07 08:27:25;;;;;;;7.38;5.47;;;0.40;99.90;;;;;;4977293;28;20187;-78
2021/04/07 08:29:51;;;;;;;9.60;5.00;;;0.40;99.90;;;;;;4977245;28;20197;-78
2021/04/07 08:32:21;;;;;;;9.20;5.32;;;0.40;99.90;;;;;;4977199;28;20189;-80
2021/04/07 08:34:48;;;;;;;5.53;3.72;;;;;;;;;;4976908;28;20187;-78
2021/04/07 08:37:24;;;;;;;6.88;4.63;;;0.50;99.90;;;;;;4977042;28;20340;-79
2021/04/07 08:39:49;;;;;;;8.05;4.95;;;0.50;99.90;;;;;;4975851;28;20176;-78
2021/04/07 08:42:16;;;;;;;8.30;4.37;;;0.50;99.90;;;;;;4977055;28;20183;-78
2021/04/07 08:44:46;;;;;;;3.88;3.20;;;0.40;99.90;;;;;;4975342;28;20522;-78
2021/04/07 08:47:32;;;;;;;6.85;4.30;;;0.30;99.90;;;;;;4975610;28;20829;-79
2021/04/07 08:50:06;;;;;;;6.53;4.03;;;0.30;99.90;;;;;;4977016;28;20589;-79
2021/04/07 08:52:40;;;;;;;6.63;4.50;;;0.30;99.90;;;;;;4976861;28;20253;-80
2021/04/07 08:55:14;;;;;;;4.85;3.75;;;0.20;99.90;;;;;;4975189;28;20183;-78
2021/04/07 08:57:40;;;;;;;10.30;5.28;;;0.30;99.90;;;;;;4976830;28;20752;-78
2021/04/07 09:00:16;;;;;;;9.10;4.70;;;0.30;99.90;;;;;;4976699;28;20192;-79
2021/04/07 09:02:56;;;;;;;6.80;4.85;;;0.30;99.90;;;;;;4976738;28;20683;-79
2021/04/07 09:05:32;;;;;;;5.10;3.42;;;0.30;99.90;;;;;;4976494;28;20217;-79
2021/04/07 09:07:59;;;;;;;7.43;4.40;;;0.40;99.90;;;;;;4975067;28;20501;-81
2021/04/07 09:10:25;;;;;;;10.57;4.68;;;0.30;99.90;;;;;;4976526;28;20195;-80
2021/04/07 09:12:53;;;;;;;5.50;4.90;;;0.40;99.90;;;;;;4974896;28;20192;-79
2021/04/07 09:15:22;;;;;;;5.45;4.63;;;0.40;99.90;;;;;;4974732;28;20196;-79
2021/04/07 09:17:57;;;;;;;4.20;3.35;;;0.40;99.90;;;;;;4975073;28;20187;-78
2021/04/07 09:20:43;;;;;;;8.77;5.13;;;0.30;99.90;;;;;;4976401;28;20171;-79
2021/04/07 09:23:16;;;;;;;6.15;4.95;;;0.30;99.90;;;;;;4975369;28;20176;-79
2021/04/07 09:25:49;;;;;;;6.72;4.40;;;0.30;99.90;;;;;;4974822;28;20207;-80
2021/04/07 09:28:14;;;;;;;10.40;6.13;;;0.40;99.90;;;;;;4976286;28;20268;-80
2021/04/07 09:30:47;;;;;;;8.03;4.47;;;0.30;99.90;;;;;;4975132;28;20221;-80
2021/04/07 09:33:18;;;;;;;9.45;5.75;;;0.30;99.90;;;;;;4974829;28;20263;-79
2021/04/07 09:35:57;;;;;;;7.50;5.80;;;0.30;99.90;;;;;;4975551;28;20323;-79
2021/04/07 09:38:22;;;;;;;10.10;5.53;;;0.40;99.90;;;;;;4976084;28;20164;-79
2021/04/07 09:40:48;;;;;;;9.07;4.93;;;0.30;99.90;;;;;;4976104;28;20514;-80
2021/04/07 09:43:14;;;;;;;11.73;5.93;;;0.40;99.90;;;;;;4958791;28;20998;-80
2021/04/07 09:45:40;;;;;;;8.63;6.95;;;0.40;99.90;;;;;;4975614;28;20434;-80
2021/04/07 09:48:07;;;;;;;16.73;6.80;;;0.40;99.90;;;;;;4974802;28;20180;-80
2021/04/07 09:50:33;;;;;;;7.05;6.35;;;0.40;99.90;;;;;;4974679;28;20188;-80
2021/04/07 09:52:59;;;;;;;11.13;6.82;;;0.40;99.90;;;;;;4984081;28;20219;-79
2021/04/07 09:55:25;;;;;;;10.90;7.67;;;0.40;99.90;;;;;;4982745;28;20299;-79
2021/04/07 09:57:57;;;;;;;7.63;6.82;;;0.40;99.90;;;;;;4986452;28;20196;-80
2021/04/07 10:00:35;;;;;;;7.68;6.15;;;0.50;99.90;;;;;;4995188;28;20536;-80
2021/04/07 10:03:02;;;;;;;6.32;5.65;;;0.50;99.90;;;;;;4995101;28;20190;-80
2021/04/07 10:05:32;;;;;;;6.47;5.55;;;0.60;99.90;;;;;;4972437;28;20265;-80
2021/04/07 10:08:23;;;;;;;9.20;7.70;;;0.60;99.90;;;;;;4986883;28;20517;-80
2021/04/07 10:10:49;;;;;;;10.32;8.25;;;0.60;99.90;;;;;;4990144;28;20203;-79
2021/04/07 10:13:16;;;;;;;7.70;6.83;;;0.60;99.90;;;;;;4987935;28;20182;-79
2021/04/07 10:15:42;;;;;;;6.03;5.53;;;0.50;99.90;;;;;;4980625;28;20454;-80
2021/04/07 10:18:09;;;;;;;8.77;7.90;;;0.50;99.90;;;;;;4990818;28;20255;-80
2021/04/07 10:20:36;;;;;;;13.77;7.85;;;0.50;99.90;;;;;;4989958;28;20190;-80
2021/04/07 10:23:09;;;;;;;10.40;8.60;;;0.70;99.90;;;;;;4994642;28;20189;-80
2021/04/07 10:25:36;;;;;;;8.93;8.02;;;0.40;99.90;;;;;;4986584;28;20208;-80
2021/04/07 10:28:02;;;;;;;7.38;6.68;;;0.70;99.90;;;;;;4974368;28;20525;-79
2021/04/07 10:30:35;;;;;;;8.45;6.90;;;0.70;99.90;;;;;;4973988;28;20185;-78
2021/04/07 10:33:03;;;;;;;7.20;6.50;;;0.70;99.90;;;;;;5006459;28;20656;-80
2021/04/07 10:35:35;;;;;;;10.55;9.35;;;0.80;99.90;;;;;;4974197;28;20209;-80
2021/04/07 10:38:07;;;;;;;10.63;8.30;;;0.80;99.90;;;;;;4975095;28;20257;-80
2021/04/07 10:40:35;;;;;;;14.98;8.30;;;0.80;99.90;;;;;;4984891;28;20196;-80
2021/04/07 10:43:22;;;;;;;7.90;6.90;;;0.80;99.90;;;;;;4975016;28;20185;-80
2021/04/07 10:45:58;;;;;;;12.95;8.30;;;0.70;99.90;;;;;;4974607;28;20561;-81
2021/04/07 10:48:24;;;;;;;10.35;9.05;;;0.80;99.90;;;;;;4974868;28;20180;-81
2021/04/07 10:50:50;;;;;;;11.02;8.23;;;0.80;99.90;;;;;;4974886;28;20178;-81
2021/04/07 10:53:26;;;;;;;8.23;6.47;;;0.90;99.90;;;;;;5011775;28;20527;-82
2021/04/07 10:55:51;;;;;;;13.85;8.68;;;0.90;99.90;;;;;;5012826;28;20245;-81
2021/04/07 10:58:26;;;;;;;12.70;9.00;;;1.00;99.90;;;;;;5011120;28;20213;-80
2021/04/07 11:00:52;;;;;;;11.60;8.20;;;1.10;99.90;;;;;;5012471;28;20176;-78
2021/04/07 11:03:29;;;;;;;9.10;5.80;;;1.20;99.90;;;;;;5012516;28;20704;-81
2021/04/07 11:05:55;;;;;;;12.57;9.00;;;1.30;99.90;;;;;;5013415;28;20201;-82
2021/04/07 11:08:21;;;;;;;12.47;8.77;;;1.40;99.90;;;;;;5013699;28;20236;-80
2021/04/07 11:10:51;;;;;;;23.87;9.63;;;1.60;99.90;;;;;;5013489;28;20635;-79
2021/04/07 11:13:18;;;;;;;16.42;8.57;;;1.70;99.90;;;;;;5000588;28;20623;-79
2021/04/07 11:15:45;;;;;;;17.83;10.30;;;1.90;99.90;;;;;;4988567;28;20664;-79
2021/04/07 11:18:27;;;;;;;21.23;9.93;;;1.90;99.90;;;;;;4990426;28;20191;-79
2021/04/07 11:20:52;;;;;;;16.73;10.02;;;1.90;99.90;;;;;;4992865;28;20519;-79
2021/04/07 11:23:19;;;;;;;42.50;8.67;;;2.00;99.90;;;;;;4993921;28;20176;-79
2021/04/07 11:25:47;;;;;;;25.80;10.50;;;2.10;99.90;;;;;;4993308;28;20205;-79
2021/04/07 11:28:17;;;;;;;13.77;8.00;;;2.20;99.90;;;;;;4993717;28;20186;-78
2021/04/07 11:30:57;;;;;;;16.98;10.40;;;2.30;99.90;;;;;;4994066;28;20194;-78
2021/04/07 11:33:28;;;;;;;26.92;9.40;;;2.30;99.90;;;;;;4996962;28;20616;-78
2021/04/07 11:36:10;;;;;;;11.10;6.80;;;2.30;99.90;;;;;;4997016;28;20225;-79
2021/04/07 11:38:37;;;;;;;19.58;5.85;;;2.20;99.90;;;;;;4996526;28;20274;-77
2021/04/07 11:46:39;;;;;;;16.05;7.70;;;2.20;99.90;;;;;;4985522;28;20206;-78
2021/04/07 11:49:05;;;;;;;18.30;10.50;;;2.20;99.90;;;;;;4997580;28;20185;-77
2021/04/07 11:51:34;;;;;;;17.70;8.45;;;2.20;99.90;;;;;;4978633;28;20240;-77
2021/04/07 11:54:00;;;;;;;12.82;8.23;;;2.30;99.90;;;;;;4977855;28;20170;-78
2021/04/07 11:56:25;;;;;;;23.70;9.27;;;2.40;99.90;;;;;;4977460;28;20215;-78
2021/04/07 11:58:51;;;;;;;14.77;7.33;;;2.50;99.90;;;;;;4977863;28;20258;-78
2021/04/07 12:01:17;;;;;;;24.27;10.30;;;2.50;99.90;;;;;;4977842;28;20187;-78
2021/04/07 12:03:43;;;;;;;14.93;8.17;;;2.60;99.90;;;;;;4977624;28;20176;-78
2021/04/07 12:06:09;;;;;;;18.40;9.73;;;2.60;99.90;;;;;;4977197;28;20235;-78
2021/04/07 12:08:36;;;;;;;18.35;11.50;;;2.60;99.90;;;;;;4975613;28;20454;-77
2021/04/07 12:11:02;;;;;;;18.95;8.77;;;2.60;99.90;;;;;;4977542;28;20179;-78
2021/04/07 12:13:28;;;;;;;11.20;8.40;;;2.60;99.90;;;;;;4977842;28;20250;-78
2021/04/07 12:15:54;;;;;;;13.10;8.00;;;2.70;99.90;;;;;;4975694;28;20204;-79
2021/04/07 12:18:20;;;;;;;23.35;8.88;;;2.70;99.90;;;;;;4977418;28;20546;-78
2021/04/07 12:20:46;;;;;;;14.73;8.20;;;2.80;99.90;;;;;;4977162;28;20179;-77
2021/04/07 12:23:12;;;;;;;18.92;9.75;;;2.90;99.90;;;;;;4975944;28;20220;-78
2021/04/07 12:25:38;;;;;;;21.40;10.13;;;3.00;99.90;;;;;;4976801;28;20746;-79
2021/04/07 12:28:05;;;;;;;17.05;7.93;;;3.00;99.90;;;;;;4975940;28;20423;-79
2021/04/07 12:30:32;;;;;;;12.93;7.15;;;3.10;99.90;;;;;;4975824;28;20186;-79
2021/04/07 12:32:58;;;;;;;29.33;7.85;;;3.10;99.90;;;;;;4977321;28;20535;-79
2021/04/07 12:35:23;;;;;;;17.47;8.67;;;3.20;99.90;;;;;;4975079;28;20224;-79
2021/04/07 12:37:49;;;;;;;24.90;9.70;;;3.10;99.90;;;;;;4975945;28;20889;-80
2021/04/07 12:40:15;;;;;;;20.47;9.60;;;3.20;99.90;;;;;;4975720;28;20172;-81
2021/04/07 12:42:41;;;;;;;15.65;9.93;;;3.20;99.90;;;;;;4976205;28;20183;-80
2021/04/07 12:45:08;;;;;;;23.27;9.43;;;3.30;99.90;;;;;;4981004;28;20201;-80
2021/04/07 12:47:34;;;;;;;16.80;8.73;;;3.30;99.90;;;;;;4993320;28;20435;-80
2021/04/07 12:50:01;;;;;;;21.63;8.13;;;3.30;99.90;;;;;;4996327;28;20192;-79
2021/04/07 12:52:27;;;;;;;16.00;6.53;;;3.40;99.90;;;;;;4995939;28;20278;-79
2021/04/07 12:57:36;;;;;;;12.45;6.70;;;3.40;99.90;;;;;;4996029;28;20218;-78
2021/04/07 13:00:04;;;;;;;17.53;6.77;;;3.50;99.90;;;;;;4996083;28;20176;-79
2021/04/07 13:02:29;;;;;;;16.85;6.00;;;3.40;99.90;;;;;;4978395;28;20181;-78